Time;durP1;ratioP1;P1;durP2;ratioP2;P2;SDS_P1;SDS_P2;PMS_P1;PMS_P2;Temp;Humidity;BMP_temperature;BMP_pressure;BME280_temperature;BME280_humidity;BME280_pressure;Samples;Min_cycle;Max_cycle;Signal;HPM_P1;HPM_P2
2021/12/18 00:00:30;;;;;;;12.57;9.00;;;;;;;4.69;61.19;94854.75;5047338;28;20643;-75
2021/12/18 00:02:56;;;;;;;10.20;8.37;;;;;;;4.62;61.17;94856.31;5046329;28;20414;-74
2021/12/18 00:05:21;;;;;;;13.33;9.50;;;;;;;4.47;61.67;94859.47;5060345;28;20175;-75
2021/12/18 00:07:47;;;;;;;12.00;9.50;;;;;;;4.57;62.18;94856.78;5065799;28;20456;-74
2021/12/18 00:10:13;;;;;;;9.57;8.07;;;;;;;4.62;62.18;94858.91;5064651;28;20242;-74
2021/12/18 00:12:41;;;;;;;12.77;10.33;;;;;;;4.80;61.61;94851.06;5064704;28;20174;-75
2021/12/18 00:15:07;;;;;;;13.63;8.67;;;;;;;4.66;61.74;94852.47;5065881;28;20173;-74
2021/12/18 00:17:32;;;;;;;11.57;8.87;;;;;;;4.82;61.46;94857.75;5066114;28;20532;-75
2021/12/18 00:19:57;;;;;;;13.50;9.60;;;;;;;4.68;62.34;94855.72;5065836;28;20452;-76
2021/12/18 00:22:23;;;;;;;10.37;5.43;;;;;;;4.65;61.28;94854.25;5063700;28;20261;-75
2021/12/18 00:24:48;;;;;;;11.30;9.30;;;;;;;4.63;62.08;94855.34;5065881;28;20178;-75
2021/12/18 00:27:14;;;;;;;12.73;9.63;;;;;;;4.71;61.67;94859.78;5065942;28;20170;-74
2021/12/18 00:29:39;;;;;;;10.73;8.67;;;;;;;4.19;62.89;94853.59;5065825;28;20163;-74
2021/12/18 00:32:05;;;;;;;13.83;10.13;;;;;;;3.97;63.62;94860.03;5064348;28;20182;-74
2021/12/18 00:34:30;;;;;;;11.53;9.17;;;;;;;4.74;61.42;94857.69;5065593;28;20190;-74
2021/12/18 00:36:56;;;;;;;12.20;10.07;;;;;;;4.28;62.63;94857.88;5065603;28;20290;-74
2021/12/18 00:39:21;;;;;;;16.00;9.50;;;;;;;4.24;62.31;94861.72;5065514;28;20197;-75
2021/12/18 00:42:39;;;;;;;9.53;6.13;;;;;;;3.87;63.25;94864.47;5078236;28;20192;-76
2021/12/18 00:44:36;;;;;;;12.20;9.17;;;;;;;4.19;62.88;94857.94;5082572;28;20227;-76
2021/12/18 00:47:01;;;;;;;5.47;3.40;;;;;;;4.11;62.58;94854.31;5071204;28;20437;-75
2021/12/18 00:49:27;;;;;;;13.00;9.30;;;;;;;4.26;62.55;94859.00;5065709;28;20417;-75
2021/12/18 00:51:52;;;;;;;9.40;6.80;;;;;;;4.35;61.85;94857.28;5065567;28;20189;-75
2021/12/18 00:54:18;;;;;;;13.80;10.13;;;;;;;4.15;62.09;94860.03;5065509;28;20202;-75
2021/12/18 00:56:43;;;;;;;11.20;8.87;;;;;;;3.84;62.84;94859.59;5058819;28;20178;-75
2021/12/18 00:59:09;;;;;;;13.00;10.10;;;;;;;4.55;61.33;94858.69;5063855;28;20225;-75
2021/12/18 01:01:35;;;;;;;12.13;8.80;;;;;;;4.28;61.73;94862.25;5065495;28;20179;-75
2021/12/18 01:04:01;;;;;;;11.53;8.83;;;;;;;4.39;62.22;94869.78;5065470;28;20162;-76
2021/12/18 01:06:27;;;;;;;11.33;8.10;;;;;;;4.14;61.88;94866.19;5064617;28;20432;-75
2021/12/18 01:08:56;;;;;;;11.70;8.97;;;;;;;3.89;63.42;94860.78;5066150;28;20297;-75
2021/12/18 01:14:19;;;;;;;13.93;9.20;;;;;;;4.29;61.58;94861.28;5065814;28;20405;-76
2021/12/18 01:24:47;;;;;;;12.80;9.47;;;;;;;4.47;60.34;94854.28;5056039;28;20478;-74
2021/12/18 01:27:12;;;;;;;12.57;8.93;;;;;;;4.50;61.09;94860.97;5045492;28;20460;-75
2021/12/18 01:29:38;;;;;;;10.43;8.90;;;;;;;4.71;60.24;94858.00;5065886;28;20234;-75
2021/12/18 01:32:04;;;;;;;9.37;8.40;;;;;;;4.35;61.09;94860.69;5064963;28;20241;-74
2021/12/18 01:34:30;;;;;;;11.20;8.93;;;;;;;4.50;60.83;94860.97;5065816;28;20448;-75
2021/12/18 01:36:56;;;;;;;13.37;8.60;;;;;;;4.49;60.47;94862.72;5060942;28;20433;-75
2021/12/18 01:39:21;;;;;;;8.10;6.17;;;;;;;4.03;61.91;94862.03;5056399;28;20317;-75
2021/12/18 01:52:45;;;;;;;12.13;9.13;;;;;;;4.42;61.65;94864.31;5074254;28;20442;-75
2021/12/18 01:55:11;;;;;;;11.90;8.13;;;;;;;4.49;61.44;94864.50;5091436;28;20412;-75
2021/12/18 01:57:37;;;;;;;9.73;8.70;;;;;;;4.34;61.06;94856.44;5091530;28;20299;-74
2021/12/18 02:00:19;;;;;;;9.70;7.43;;;;;;;4.44;61.09;94851.16;5071522;28;20505;-75
2021/12/18 02:02:45;;;;;;;9.90;7.60;;;;;;;4.47;61.34;94856.88;5066035;28;20444;-75
2021/12/18 02:05:12;;;;;;;12.60;8.40;;;;;;;4.84;60.03;94853.22;5073789;28;20484;-75
2021/12/18 02:07:40;;;;;;;9.67;6.93;;;;;;;4.62;61.01;94853.75;5072495;28;20182;-75
2021/12/18 02:10:10;;;;;;;9.03;8.10;;;;;;;4.42;61.02;94847.91;5073537;28;20413;-74
2021/12/18 02:20:45;;;;;;;10.90;8.50;;;;;;;4.45;60.86;94843.25;5073120;28;20479;-74
2021/12/18 02:23:11;;;;;;;9.80;7.97;;;;;;;4.74;60.00;94841.31;5071735;28;20415;-75
2021/12/18 02:25:37;;;;;;;10.30;7.17;;;;;;;4.62;60.04;94849.34;5071300;28;20407;-75
2021/12/18 02:28:11;;;;;;;10.33;8.53;;;;;;;4.54;60.70;94848.50;5070084;28;20478;-75
2021/12/18 02:30:36;;;;;;;11.47;9.30;;;;;;;4.45;61.09;94848.44;5071329;28;20872;-75
2021/12/18 02:33:02;;;;;;;11.93;8.90;;;;;;;4.61;61.01;94842.56;5070950;28;20417;-75
2021/12/18 02:35:48;;;;;;;12.07;8.47;;;;;;;4.77;60.29;94852.22;5070972;28;20185;-74
2021/12/18 02:38:23;;;;;;;8.77;7.50;;;;;;;4.02;63.15;94849.22;5071118;28;20209;-74
2021/12/18 02:43:37;;;;;;;12.70;9.70;;;;;;;4.46;61.56;94842.31;5052078;28;20429;-75
2021/12/18 02:46:08;;;;;;;9.43;7.43;;;;;;;4.94;59.98;94849.72;5080953;28;20430;-75
2021/12/18 02:48:39;;;;;;;8.93;8.03;;;;;;;4.80;61.35;94851.06;5048234;28;20393;-76
2021/12/18 02:51:06;;;;;;;11.77;9.30;;;;;;;4.77;60.56;94854.81;5050860;28;20432;-75
2021/12/18 02:53:33;;;;;;;11.87;8.20;;;;;;;4.57;61.39;94861.16;5068070;28;20413;-74
2021/12/18 02:56:03;;;;;;;11.90;8.53;;;;;;;4.66;61.22;94866.22;5062700;28;20556;-75
2021/12/18 02:58:29;;;;;;;13.30;8.07;;;;;;;4.63;61.19;94865.72;5048676;28;20454;-75
2021/12/18 03:00:58;;;;;;;10.20;8.03;;;;;;;5.02;60.32;94870.50;5047923;28;20441;-75
2021/12/18 03:03:27;;;;;;;12.20;8.57;;;;;;;4.46;61.74;94870.81;5048408;28;20273;-76
2021/12/18 03:06:10;;;;;;;11.70;7.20;;;;;;;4.48;62.14;94863.69;5054231;28;20433;-75
2021/12/18 03:27:44;;;;;;;13.47;9.20;;;;;;;4.74;62.04;94873.25;5066941;28;20451;-74
2021/12/18 03:30:10;;;;;;;13.87;8.50;;;;;;;4.22;64.30;94873.19;5066677;28;20429;-75
2021/12/18 03:32:35;;;;;;;5.00;4.50;;;;;;;4.18;64.60;94874.47;5065407;28;20293;-74
2021/12/18 03:35:02;;;;;;;16.77;8.60;;;;;;;3.18;70.35;94877.00;5065361;28;20425;-73
2021/12/18 03:37:28;;;;;;;12.03;9.40;;;;;;;3.90;68.13;94890.88;5055489;28;20187;-74
2021/12/18 03:39:53;;;;;;;11.00;8.77;;;;;;;3.94;68.26;94891.41;5046528;28;20467;-74
2021/12/18 03:42:19;;;;;;;13.53;9.00;;;;;;;4.14;68.07;94896.44;5045299;28;20611;-74
2021/12/18 03:44:44;;;;;;;14.47;9.57;;;;;;;4.08;68.15;94896.06;5047092;28;20230;-74
2021/12/18 03:47:10;;;;;;;14.20;10.40;;;;;;;3.68;69.79;94897.31;5048027;28;20179;-74
2021/12/18 03:49:35;;;;;;;12.40;9.83;;;;;;;3.84;69.47;94891.47;5064948;28;20240;-74
2021/12/18 03:52:01;;;;;;;13.43;9.70;;;;;;;4.05;68.39;94890.38;5066469;28;20171;-74
2021/12/18 03:54:27;;;;;;;17.33;10.70;;;;;;;4.00;68.88;94890.78;5066307;28;20242;-74
2021/12/18 03:56:52;;;;;;;13.43;8.67;;;;;;;3.61;69.77;94891.06;5066097;28;20658;-74
2021/12/18 03:59:18;;;;;;;14.60;11.40;;;;;;;4.09;67.99;94889.09;5065041;28;20194;-74
2021/12/18 04:01:44;;;;;;;14.47;10.10;;;;;;;3.84;68.25;94899.22;5065907;28;20185;-74
2021/12/18 04:04:10;;;;;;;15.07;9.80;;;;;;;4.18;67.80;94895.19;5066625;28;20177;-75
2021/12/18 04:06:38;;;;;;;12.27;8.70;;;;;;;3.66;68.87;94899.22;5066492;28;20421;-75
2021/12/18 04:09:03;;;;;;;13.53;9.03;;;;;;;4.10;67.40;94891.56;5066292;28;20246;-74
2021/12/18 04:11:29;;;;;;;13.00;9.10;;;;;;;4.10;67.02;94886.38;5066252;28;20421;-75
2021/12/18 04:13:55;;;;;;;12.50;9.20;;;;;;;3.99;67.13;94886.59;5064725;28;20182;-75
2021/12/18 04:16:21;;;;;;;12.90;9.37;;;;;;;4.23;65.81;94890.34;5066199;28;20282;-75
2021/12/18 04:18:46;;;;;;;14.40;9.10;;;;;;;4.18;66.30;94893.41;5065817;28;20448;-74
2021/12/18 04:21:12;;;;;;;8.20;6.00;;;;;;;3.89;66.71;94891.84;5064406;28;20237;-74
2021/12/18 04:23:37;;;;;;;10.20;8.30;;;;;;;4.15;65.70;94890.28;5064420;28;20178;-75
2021/12/18 04:26:03;;;;;;;9.63;8.03;;;;;;;4.01;65.67;94887.25;5065730;28;20183;-75
2021/12/18 04:28:28;;;;;;;16.90;8.47;;;;;;;4.11;66.24;94903.53;5065404;28;20177;-75
2021/12/18 04:30:54;;;;;;;10.90;8.83;;;;;;;4.18;65.19;94896.00;5065700;28;20179;-75
2021/12/18 04:33:19;;;;;;;8.60;6.97;;;;;;;4.38;64.90;94904.44;5065848;28;20178;-75
2021/12/18 04:35:45;;;;;;;12.20;8.87;;;;;;;4.23;64.49;94903.31;5065795;28;20183;-75
2021/12/18 04:38:10;;;;;;;9.17;7.80;;;;;;;3.94;65.54;94904.34;5051492;28;20196;-74
2021/12/18 04:40:36;;;;;;;11.33;9.10;;;;;;;4.11;65.28;94900.94;5044241;28;20206;-74
2021/12/18 04:43:03;;;;;;;12.60;8.60;;;;;;;4.03;65.80;94908.63;5045424;28;20286;-74
2021/12/18 04:45:28;;;;;;;11.73;9.20;;;;;;;3.96;65.89;94912.78;5045367;28;20186;-74
2021/12/18 04:47:56;;;;;;;11.87;9.00;;;;;;;4.18;64.58;94913.31;5063551;28;20412;-74
2021/12/18 04:50:23;;;;;;;13.70;8.90;;;;;;;4.07;65.53;94916.94;5065471;28;20177;-74
2021/12/18 04:52:49;;;;;;;10.00;8.63;;;;;;;4.42;64.28;94920.47;5065763;28;20425;-75
2021/12/18 04:55:16;;;;;;;10.00;8.90;;;;;;;3.87;66.45;94924.00;5063756;28;20436;-74
2021/12/18 04:57:41;;;;;;;9.20;8.13;;;;;;;3.80;65.53;94921.19;5063958;28;20444;-74
2021/12/18 05:00:10;;;;;;;12.63;9.07;;;;;;;4.00;65.72;94921.88;5065252;28;20413;-74
2021/12/18 05:02:43;;;;;;;11.77;8.30;;;;;;;4.32;64.76;94930.91;5047351;28;20193;-75
2021/12/18 05:05:12;;;;;;;11.00;7.80;;;;;;;4.25;64.79;94942.81;5053171;28;20410;-74
2021/12/18 05:07:38;;;;;;;10.10;8.10;;;;;;;4.15;64.43;94944.69;5045649;28;20421;-74
2021/12/18 05:10:05;;;;;;;10.53;7.77;;;;;;;4.42;63.86;94939.44;5044608;28;20445;-74
2021/12/18 05:12:31;;;;;;;7.60;6.57;;;;;;;3.91;64.92;94953.84;5044213;28;20175;-74
2021/12/18 05:14:56;;;;;;;9.63;8.63;;;;;;;3.95;65.49;94954.38;5043794;28;20419;-74
2021/12/18 05:17:22;;;;;;;9.63;7.73;;;;;;;4.07;64.65;94954.00;5060932;28;20274;-74
2021/12/18 05:19:47;;;;;;;11.33;9.13;;;;;;;4.17;64.22;94958.28;5063579;28;20222;-74
2021/12/18 05:22:13;;;;;;;15.10;9.83;;;;;;;4.08;64.23;94970.38;5065069;28;20510;-75
2021/12/18 05:24:39;;;;;;;8.50;7.60;;;;;;;4.43;63.11;94963.56;5065132;28;20178;-74
2021/12/18 05:27:04;;;;;;;9.83;8.37;;;;;;;3.87;64.57;94968.84;5063605;28;20182;-74
2021/12/18 05:29:30;;;;;;;11.27;8.07;;;;;;;4.28;63.90;94976.22;5065138;28;20162;-74
2021/12/18 05:31:55;;;;;;;9.47;7.37;;;;;;;4.24;64.00;94974.88;5064789;28;20268;-74
2021/12/18 05:34:23;;;;;;;9.30;7.10;;;;;;;4.10;64.86;94973.63;5064803;28;20166;-74
2021/12/18 05:39:16;;;;;;;12.33;8.50;;;;;;;4.08;64.10;94978.94;5065096;28;20464;-74
2021/12/18 05:41:41;;;;;;;11.93;7.63;;;;;;;3.84;64.95;94986.44;5064935;28;20730;-74
2021/12/18 05:44:07;;;;;;;11.80;8.13;;;;;;;3.97;63.84;94986.09;5063536;28;20174;-75
2021/12/18 05:46:33;;;;;;;10.80;7.97;;;;;;;4.11;63.63;94986.38;5064700;28;20174;-74
2021/12/18 05:48:59;;;;;;;9.53;8.53;;;;;;;3.76;65.32;94983.75;5064594;28;20166;-75
2021/12/18 05:51:25;;;;;;;13.37;9.67;;;;;;;3.93;64.94;94988.16;5063240;28;20432;-74
2021/12/18 05:53:50;;;;;;;8.67;7.67;;;;;;;3.90;64.05;94988.44;5064841;28;20173;-74
2021/12/18 05:56:16;;;;;;;10.77;7.87;;;;;;;3.87;64.53;94993.88;5064786;28;20799;-74
2021/12/18 05:58:43;;;;;;;13.80;8.30;;;;;;;3.90;65.19;94993.63;5060941;28;20196;-74
2021/12/18 06:01:08;;;;;;;11.33;7.57;;;;;;;4.31;64.06;95007.00;5044537;28;20229;-74
2021/12/18 06:03:34;;;;;;;10.53;8.27;;;;;;;3.53;65.99;95002.25;5044551;28;20461;-74
2021/12/18 06:06:00;;;;;;;11.80;8.17;;;;;;;3.71;64.99;94997.13;5047343;28;20187;-74
2021/12/18 06:08:26;;;;;;;11.83;8.20;;;;;;;3.83;65.49;94997.72;5064284;28;20166;-74
2021/12/18 06:10:52;;;;;;;9.47;8.50;;;;;;;3.79;65.37;94996.41;5064544;28;20421;-74
2021/12/18 06:13:17;;;;;;;9.87;7.37;;;;;;;4.20;64.55;95005.44;5064187;28;20435;-74
2021/12/18 06:15:43;;;;;;;13.63;9.00;;;;;;;4.08;65.34;95004.81;5064335;28;20591;-74
2021/12/18 06:18:09;;;;;;;9.90;7.97;;;;;;;4.46;64.37;95009.91;5064608;28;20566;-75
2021/12/18 06:20:35;;;;;;;11.40;8.73;;;;;;;3.42;67.34;95012.75;5065127;28;20461;-75
2021/12/18 06:23:01;;;;;;;11.07;7.80;;;;;;;3.89;66.47;95023.06;5068609;28;20236;-75
2021/12/18 06:25:26;;;;;;;9.83;6.33;;;;;;;3.51;66.87;95020.47;5066985;28;20417;-75
2021/12/18 06:27:52;;;;;;;8.43;7.60;;;;;;;3.71;67.17;95035.94;5068155;28;20242;-74
2021/12/18 06:30:19;;;;;;;10.30;8.10;;;;;;;4.16;65.66;95027.41;5068019;28;20166;-75
2021/12/18 06:32:45;;;;;;;12.47;8.73;;;;;;;4.32;65.87;95029.34;5068157;28;20171;-75
2021/12/18 06:35:10;;;;;;;11.47;8.27;;;;;;;4.37;65.43;95037.50;5068044;28;20437;-74
2021/12/18 06:37:37;;;;;;;11.27;7.57;;;;;;;4.47;64.80;95040.03;5068088;28;20417;-75
2021/12/18 06:40:13;;;;;;;12.50;8.77;;;;;;;4.47;65.08;95047.81;5067675;28;20464;-75
2021/12/18 06:42:39;;;;;;;10.50;8.37;;;;;;;4.02;66.51;95039.06;5062680;28;20460;-75
2021/12/18 06:45:06;;;;;;;10.17;8.70;;;;;;;4.51;64.70;95046.53;5047247;28;20489;-75
2021/12/18 06:47:32;;;;;;;12.50;9.00;;;;;;;4.43;65.52;95047.28;5052940;28;20444;-75
2021/12/18 06:49:57;;;;;;;11.60;10.00;;;;;;;4.80;64.29;95048.94;5067669;28;20412;-75
2021/12/18 06:52:23;;;;;;;12.90;10.90;;;;;;;4.97;63.98;95052.50;5067096;28;20203;-75
2021/12/18 06:54:48;;;;;;;13.20;10.17;;;;;;;4.63;64.16;95052.31;5068078;28;20166;-74
2021/12/18 06:57:13;;;;;;;13.77;9.60;;;;;;;4.64;64.98;95048.78;5066410;28;20266;-75
2021/12/18 06:59:39;;;;;;;11.63;9.97;;;;;;;4.65;64.36;95058.19;5067562;28;20194;-74
2021/12/18 07:02:05;;;;;;;13.20;9.60;;;;;;;4.69;64.79;95064.72;5053390;28;20179;-75
2021/12/18 07:04:30;;;;;;;11.27;9.20;;;;;;;4.61;64.84;95069.78;5050780;28;20183;-74
2021/12/18 07:06:56;;;;;;;12.50;9.47;;;;;;;4.10;66.75;95078.00;5047469;28;20187;-74
2021/12/18 07:09:21;;;;;;;16.10;10.77;;;;;;;4.35;66.31;95080.06;5046263;28;20264;-75
2021/12/18 07:11:47;;;;;;;15.63;9.20;;;;;;;4.07;66.34;95088.63;5057581;28;20174;-75
2021/12/18 07:14:13;;;;;;;11.60;9.30;;;;;;;4.01;67.32;95084.03;5067414;28;20197;-75
2021/12/18 07:16:39;;;;;;;18.40;11.93;;;;;;;4.35;66.41;95080.88;5055639;28;20198;-75
2021/12/18 07:19:05;;;;;;;13.43;9.87;;;;;;;5.00;64.80;95077.31;5047225;28;20458;-75
2021/12/18 07:21:32;;;;;;;14.27;9.37;;;;;;;4.39;65.03;95077.03;5055064;28;20496;-75
2021/12/18 07:23:57;;;;;;;11.73;10.40;;;;;;;4.84;64.56;95083.97;5050550;28;20505;-75
2021/12/18 07:26:23;;;;;;;17.00;11.07;;;;;;;5.20;62.90;95081.38;5061605;28;20210;-75
2021/12/18 07:28:48;;;;;;;12.67;10.40;;;;;;;5.24;63.71;95081.88;5066206;28;20226;-75
2021/12/18 07:31:14;;;;;;;15.90;10.40;;;;;;;4.96;63.46;95086.34;5065189;28;20237;-74
2021/12/18 07:33:42;;;;;;;13.40;10.40;;;;;;;5.11;62.50;95090.03;5067022;28;20257;-75
2021/12/18 07:36:08;;;;;;;11.57;9.33;;;;;;;4.99;63.09;95088.63;5067000;28;20537;-74
2021/12/18 07:38:34;;;;;;;13.20;10.37;;;;;;;5.50;62.13;95091.47;5063258;28;20486;-75
2021/12/18 07:41:00;;;;;;;10.57;9.47;;;;;;;5.51;60.49;95086.13;5064238;28;20426;-74
2021/12/18 07:43:25;;;;;;;10.23;8.60;;;;;;;4.52;63.29;95086.25;5060178;28;20424;-74
2021/12/18 07:45:51;;;;;;;15.20;9.63;;;;;;;5.07;62.85;95091.31;5066526;28;20166;-74
2021/12/18 07:48:17;;;;;;;11.10;8.67;;;;;;;5.58;61.29;95096.72;5060988;28;20182;-75
2021/12/18 07:50:43;;;;;;;10.40;8.70;;;;;;;5.15;61.97;95104.34;5066549;28;20166;-75
2021/12/18 07:53:09;;;;;;;14.73;10.17;;;;;;;5.60;61.12;95108.56;5057828;28;20432;-75
2021/12/18 07:55:34;;;;;;;13.70;9.87;;;;;;;5.73;60.63;95109.94;5055258;28;20208;-75
2021/12/18 07:57:59;;;;;;;12.83;8.97;;;;;;;5.44;61.63;95117.06;5053976;28;20175;-73
2021/12/18 08:00:25;;;;;;;13.17;10.00;;;;;;;5.40;59.85;95122.69;5046766;28;20271;-74
2021/12/18 08:02:54;;;;;;;15.03;9.00;;;;;;;5.19;61.00;95116.03;5049805;28;20182;-73
2021/12/18 08:05:20;;;;;;;10.57;7.17;;;;;;;4.85;61.69;95128.84;5066730;28;20170;-74
2021/12/18 08:07:45;;;;;;;15.70;9.50;;;;;;;5.07;62.04;95130.22;5065461;28;20512;-74
2021/12/18 08:10:11;;;;;;;13.30;8.90;;;;;;;5.01;61.40;95138.59;5065192;28;20238;-74
2021/12/18 08:12:37;;;;;;;11.17;9.53;;;;;;;4.87;61.64;95134.72;5061220;28;20233;-75
2021/12/18 08:15:03;;;;;;;11.90;8.87;;;;;;;5.35;60.33;95132.69;5050141;28;20429;-75
2021/12/18 08:17:29;;;;;;;12.53;8.97;;;;;;;5.49;60.37;95132.19;5058359;28;20570;-75
2021/12/18 08:19:54;;;;;;;10.40;9.33;;;;;;;5.75;59.90;95134.81;5062505;28;20473;-76
2021/12/18 08:22:20;;;;;;;11.40;9.60;;;;;;;6.26;58.69;95142.78;5056102;28;20182;-76
2021/12/18 08:24:45;;;;;;;14.20;9.73;;;;;;;6.51;57.70;95132.47;5059516;28;20185;-75
2021/12/18 08:27:11;;;;;;;19.63;10.37;;;;;;;6.23;57.37;95138.69;5065100;28;20210;-75
2021/12/18 08:29:37;;;;;;;12.20;9.73;;;;;;;5.35;59.43;95140.50;5066325;28;20221;-76
2021/12/18 08:32:03;;;;;;;11.10;8.60;;;;;;;5.72;58.91;95147.28;5066907;28;20529;-76
2021/12/18 08:34:29;;;;;;;15.70;10.63;;;;;;;5.82;59.00;95148.81;5051043;28;20198;-76
2021/12/18 08:36:57;;;;;;;12.17;9.23;;;;;;;6.17;57.15;95146.28;5052540;28;20433;-76
2021/12/18 08:39:23;;;;;;;14.53;10.00;;;;;;;6.64;56.79;95148.44;5064967;28;20232;-76
2021/12/18 08:41:48;;;;;;;12.30;9.30;;;;;;;6.83;57.11;95148.19;5066594;28;20425;-76
2021/12/18 08:44:17;;;;;;;15.57;10.80;;;;;;;6.58;56.17;95149.06;5065278;28;20170;-77
2021/12/18 08:46:43;;;;;;;14.67;10.13;;;;;;;7.00;56.00;95145.59;5066798;28;20183;-76
2021/12/18 08:49:11;;;;;;;13.93;10.93;;;;;;;6.83;56.15;95142.16;5066843;28;20419;-76
2021/12/18 08:51:38;;;;;;;12.17;8.93;;;;;;;7.08;55.26;95137.81;5065876;28;20475;-76
2021/12/18 08:54:05;;;;;;;13.47;10.47;;;;;;;6.40;56.73;95142.16;5065831;28;20904;-75
2021/12/18 08:56:31;;;;;;;15.63;11.73;;;;;;;6.67;56.80;95142.09;5065044;28;20425;-75
2021/12/18 08:58:58;;;;;;;12.60;10.03;;;;;;;6.04;58.07;95152.69;5066111;28;20481;-75
2021/12/18 09:01:26;;;;;;;13.03;10.47;;;;;;;6.27;57.66;95140.97;5066752;28;20665;-75
2021/12/18 09:03:52;;;;;;;13.93;9.73;;;;;;;5.47;59.19;95142.72;5066572;28;20409;-76
2021/12/18 09:06:18;;;;;;;14.90;10.37;;;;;;;6.16;57.60;95142.84;5067195;28;20416;-75
2021/12/18 09:08:43;;;;;;;17.70;10.80;;;;;;;6.34;58.04;95145.41;5066121;28;20439;-76
2021/12/18 09:11:09;;;;;;;18.00;10.60;;;;;;;6.86;56.33;95136.63;5066799;28;20417;-76
2021/12/18 09:13:34;;;;;;;15.27;10.60;;;;;;;6.64;56.99;95143.25;5066864;28;20520;-76
2021/12/18 09:16:00;;;;;;;11.87;10.57;;;;;;;6.40;57.33;95141.34;5065510;28;20644;-75
2021/12/18 09:18:25;;;;;;;16.10;11.87;;;;;;;6.39;57.66;95135.34;5061348;28;20202;-75
2021/12/18 09:20:51;;;;;;;10.87;8.67;;;;;;;6.20;57.65;95136.41;5066321;28;20597;-76
2021/12/18 09:23:18;;;;;;;11.97;8.27;;;;;;;5.61;59.06;95127.56;5065669;28;20662;-75
2021/12/18 09:25:45;;;;;;;9.33;7.20;;;;;;;5.19;60.44;95126.41;5066799;28;20181;-76
2021/12/18 09:28:10;;;;;;;5.93;5.17;;;;;;;4.87;61.19;95134.72;5065611;28;20425;-76
2021/12/18 09:30:38;;;;;;;10.30;7.90;;;;;;;5.08;60.57;95137.00;5065106;28;20419;-75
2021/12/18 09:33:03;;;;;;;7.90;7.03;;;;;;;5.34;60.49;95134.50;5098527;28;20247;-76
2021/12/18 09:35:29;;;;;;;4.50;4.20;;;;;;;4.58;60.71;95130.53;5065029;28;20931;-75
2021/12/18 09:37:54;;;;;;;7.50;5.70;;;;;;;4.52;62.29;95138.88;5066630;28;20162;-77
2021/12/18 09:40:20;;;;;;;7.20;6.50;;;;;;;5.02;60.50;95140.22;5066081;28;20565;-76
2021/12/18 09:42:47;;;;;;;6.53;5.90;;;;;;;4.98;60.89;95144.06;5066782;28;20573;-76
2021/12/18 09:45:14;;;;;;;8.87;6.67;;;;;;;5.28;60.52;95135.91;5066091;28;20179;-78
2021/12/18 09:47:40;;;;;;;8.27;4.90;;;;;;;4.70;61.12;95131.13;5056184;28;20461;-76
2021/12/18 09:50:07;;;;;;;10.47;6.40;;;;;;;4.91;61.35;95132.63;5051006;28;20423;-76
2021/12/18 09:52:35;;;;;;;7.87;6.83;;;;;;;4.83;61.09;95131.59;5044686;28;20457;-76
2021/12/18 09:55:01;;;;;;;9.87;6.40;;;;;;;5.77;59.00;95126.88;5056227;28;20422;-76
2021/12/18 09:57:26;;;;;;;9.10;6.27;;;;;;;5.45;59.37;95130.84;5068368;28;20428;-77
2021/12/18 09:59:52;;;;;;;8.87;7.97;;;;;;;6.18;57.65;95127.91;5069745;28;20496;-77
2021/12/18 10:02:18;;;;;;;13.77;7.20;;;;;;;6.22;57.53;95131.03;5070114;28;20629;-77
2021/12/18 10:04:44;;;;;;;8.10;6.87;;;;;;;5.58;59.08;95128.69;5069797;28;20441;-76
2021/12/18 10:07:27;;;;;;;8.47;7.33;;;;;;;5.75;58.57;95132.22;5053388;28;20211;-77
2021/12/18 10:09:57;;;;;;;8.73;5.60;;;;;;;5.94;57.18;95120.81;5058911;28;20908;-78
2021/12/18 10:12:32;;;;;;;7.40;6.30;;;;;;;5.88;58.13;95116.22;5051595;28;20731;-77
2021/12/18 10:15:01;;;;;;;9.40;6.00;;;;;;;6.36;57.19;95119.25;5064316;28;20556;-77
2021/12/18 10:17:31;;;;;;;8.07;7.20;;;;;;;6.72;56.63;95104.25;5070179;28;20452;-77
2021/12/18 10:20:21;;;;;;;10.33;8.63;;;;;;;6.90;57.32;95105.91;5070462;28;20547;-77
2021/12/18 10:22:50;;;;;;;8.87;7.80;;;;;;;6.62;56.51;95104.41;5063899;28;20533;-77
2021/12/18 10:25:22;;;;;;;9.63;7.40;;;;;;;6.78;56.54;95105.41;5062426;28;20409;-77
2021/12/18 10:28:17;;;;;;;12.80;7.63;;;;;;;6.93;55.98;95106.41;5071319;28;20845;-77
2021/12/18 10:30:49;;;;;;;9.93;6.97;;;;;;;7.32;54.96;95108.41;5052396;28;20460;-77
2021/12/18 10:33:16;;;;;;;9.13;7.90;;;;;;;6.82;55.62;95102.31;5068962;28;20501;-77
2021/12/18 10:35:45;;;;;;;10.10;8.40;;;;;;;7.30;54.49;95109.53;5070750;28;20420;-76
2021/12/18 10:38:39;;;;;;;11.17;9.40;;;;;;;7.36;54.14;95101.91;5070414;28;20491;-76
2021/12/18 10:41:20;;;;;;;6.53;3.97;;;;;;;6.15;56.21;95106.66;5070760;28;20429;-76
2021/12/18 10:44:00;;;;;;;7.93;5.80;;;;;;;5.80;57.20;95097.97;5068740;28;20412;-76
2021/12/18 10:46:27;;;;;;;8.07;5.40;;;;;;;6.22;55.90;95090.28;5053010;28;20913;-76
2021/12/18 10:49:01;;;;;;;4.17;3.80;;;;;;;6.24;55.76;95096.13;5062676;28;20417;-77
2021/12/18 10:51:30;;;;;;;7.00;3.50;;;;;;;5.82;56.49;95085.66;5069283;28;20463;-77
2021/12/18 10:54:07;;;;;;;6.63;5.33;;;;;;;6.47;55.27;95079.16;5068791;28;20471;-76
2021/12/18 10:56:41;;;;;;;6.50;5.77;;;;;;;6.61;54.62;95078.53;5069923;28;20432;-77
2021/12/18 10:59:20;;;;;;;1.40;1.30;;;;;;;5.91;55.93;95066.56;5063672;28;20844;-76
2021/12/18 11:01:56;;;;;;;5.57;4.10;;;;;;;6.13;55.42;95074.78;5050395;28;20572;-76
2021/12/18 11:04:35;;;;;;;11.63;7.97;;;;;;;6.67;54.11;95079.69;5056226;28;20509;-76
2021/12/18 11:07:21;;;;;;;8.33;7.40;;;;;;;7.16;53.38;95077.97;5049308;28;20422;-77
2021/12/18 11:10:11;;;;;;;9.70;7.37;;;;;;;7.44;51.80;95080.25;5053123;28;20414;-77
2021/12/18 11:15:19;;;;;;;8.93;7.00;;;;;;;7.89;50.79;95065.03;5069011;28;20427;-77
2021/12/18 11:17:46;;;;;;;7.17;6.50;;;;;;;7.16;51.15;95080.56;5068527;28;20512;-77
2021/12/18 11:20:12;;;;;;;8.90;6.80;;;;;;;7.35;51.40;95078.63;5068795;28;20343;-76
2021/12/18 11:22:38;;;;;;;7.30;6.53;;;;;;;7.04;51.70;95076.69;5068673;28;20435;-76
2021/12/18 11:25:06;;;;;;;8.20;6.60;;;;;;;7.00;51.47;95076.19;5067978;28;20175;-77
2021/12/18 11:27:34;;;;;;;6.63;6.03;;;;;;;7.07;51.21;95070.31;5052539;28;20190;-76
2021/12/18 11:30:06;;;;;;;5.93;5.33;;;;;;;7.07;50.45;95071.13;5068386;28;20404;-77
2021/12/18 11:32:34;;;;;;;8.40;5.30;;;;;;;7.20;50.72;95076.66;5069201;28;20483;-76
2021/12/18 11:35:03;;;;;;;4.00;3.70;;;;;;;6.61;49.96;95073.34;5068431;28;20409;-76
2021/12/18 11:37:39;;;;;;;7.30;4.13;;;;;;;6.43;51.81;95078.66;5068993;28;20440;-76
2021/12/18 11:40:06;;;;;;;5.83;3.63;;;;;;;6.80;49.76;95070.44;5068888;28;20449;-76
2021/12/18 11:42:33;;;;;;;4.83;3.53;;;;;;;6.35;51.48;95076.84;5067203;28;20425;-76
2021/12/18 11:45:02;;;;;;;6.00;4.10;;;;;;;6.27;51.11;95074.22;5068208;28;20421;-75
2021/12/18 11:47:40;;;;;;;3.90;2.77;;;;;;;6.32;51.38;95071.13;5067444;28;20431;-76
2021/12/18 11:50:26;;;;;;;3.20;2.87;;;;;;;6.46;49.25;95067.94;5047751;28;20394;-76
2021/12/18 11:53:11;;;;;;;3.40;3.07;;;;;;;6.24;50.81;95080.56;5058356;28;20478;-75
2021/12/18 11:55:58;;;;;;;2.20;1.87;;;;;;;6.07;50.96;95081.47;5067516;28;20435;-76
2021/12/18 11:58:33;;;;;;;4.10;3.70;;;;;;;6.27;51.15;95089.81;5065918;28;20545;-76
2021/12/18 12:01:05;;;;;;;4.00;2.53;;;;;;;6.52;50.25;95087.28;5067439;28;20417;-76
2021/12/18 12:03:56;;;;;;;3.27;3.03;;;;;;;6.44;50.71;95081.09;5067488;28;20409;-76
2021/12/18 12:06:30;;;;;;;4.87;3.57;;;;;;;6.70;49.98;95075.00;5066204;28;20433;-76
2021/12/18 12:09:21;;;;;;;6.43;4.23;;;;;;;6.83;49.86;95075.34;5066906;28;20393;-75
2021/12/18 12:12:04;;;;;;;6.27;4.43;;;;;;;5.31;55.37;95087.25;5072435;28;20437;-76
2021/12/18 12:14:32;;;;;;;3.03;2.83;;;;;;;5.02;57.84;95080.56;5063793;28;20474;-75
2021/12/18 12:17:05;;;;;;;6.23;4.97;;;;;;;4.93;59.19;95089.22;5066131;28;20433;-75
2021/12/18 12:19:33;;;;;;;4.63;3.20;;;;;;;4.99;59.18;95089.47;5060584;28;20477;-77
2021/12/18 12:21:59;;;;;;;6.63;5.80;;;;;;;5.13;59.98;95092.50;5065060;28;20440;-78
2021/12/18 12:24:27;;;;;;;6.50;4.60;;;;;;;4.35;62.73;95083.47;5065474;28;20431;-77
2021/12/18 12:26:53;;;;;;;5.33;4.80;;;;;;;4.32;63.36;95091.53;5064322;28;20433;-77
2021/12/18 12:29:19;;;;;;;6.57;6.03;;;;;;;4.67;62.06;95084.78;5065918;28;20470;-76
2021/12/18 12:32:07;;;;;;;11.27;6.70;;;;;;;4.89;62.17;95092.13;5066622;28;20456;-77
2021/12/18 12:34:35;;;;;;;11.43;5.33;;;;;;;4.79;61.48;95093.97;5046823;28;20430;-77